sensor_id;sensor_type;location;lat;lon;timestamp;P1;durP1;ratioP1;P2;durP2;ratioP2
15905;SDS011;8051;50.820;4.884;2023-02-15T00:01:31;66.27;;;53.87;;
15905;SDS011;8051;50.820;4.884;2023-02-15T00:03:59;67.80;;;54.57;;
15905;SDS011;8051;50.820;4.884;2023-02-15T00:06:28;72.40;;;54.37;;
15905;SDS011;8051;50.820;4.884;2023-02-15T00:08:56;70.97;;;55.67;;
15905;SDS011;8051;50.820;4.884;2023-02-15T00:11:23;69.70;;;55.77;;
15905;SDS011;8051;50.820;4.884;2023-02-15T00:14:08;67.33;;;54.80;;
15905;SDS011;8051;50.820;4.884;2023-02-15T00:16:38;66.30;;;54.23;;
15905;SDS011;8051;50.820;4.884;2023-02-15T00:19:06;64.77;;;53.97;;
15905;SDS011;8051;50.820;4.884;2023-02-15T00:21:37;67.60;;;54.17;;
15905;SDS011;8051;50.820;4.884;2023-02-15T00:24:06;65.40;;;54.37;;
15905;SDS011;8051;50.820;4.884;2023-02-15T00:26:35;66.07;;;53.73;;
15905;SDS011;8051;50.820;4.884;2023-02-15T00:29:05;64.17;;;51.77;;
15905;SDS011;8051;50.820;4.884;2023-02-15T00:31:33;64.17;;;53.97;;
15905;SDS011;8051;50.820;4.884;2023-02-15T00:34:02;69.90;;;56.40;;
15905;SDS011;8051;50.820;4.884;2023-02-15T00:36:30;80.47;;;56.80;;
15905;SDS011;8051;50.820;4.884;2023-02-15T00:38:59;72.77;;;56.70;;
15905;SDS011;8051;50.820;4.884;2023-02-15T00:41:27;75.90;;;54.60;;
15905;SDS011;8051;50.820;4.884;2023-02-15T00:43:54;67.60;;;53.67;;
15905;SDS011;8051;50.820;4.884;2023-02-15T00:46:22;66.17;;;55.13;;
15905;SDS011;8051;50.820;4.884;2023-02-15T00:48:49;63.83;;;55.00;;
15905;SDS011;8051;50.820;4.884;2023-02-15T00:51:18;74.73;;;56.90;;
15905;SDS011;8051;50.820;4.884;2023-02-15T00:53:46;74.43;;;55.73;;
15905;SDS011;8051;50.820;4.884;2023-02-15T00:56:15;82.50;;;55.17;;
15905;SDS011;8051;50.820;4.884;2023-02-15T00:58:43;75.73;;;57.17;;
15905;SDS011;8051;50.820;4.884;2023-02-15T01:01:14;74.30;;;56.90;;
15905;SDS011;8051;50.820;4.884;2023-02-15T01:03:42;69.03;;;55.67;;
15905;SDS011;8051;50.820;4.884;2023-02-15T01:06:11;75.67;;;56.63;;
15905;SDS011;8051;50.820;4.884;2023-02-15T01:08:39;74.70;;;56.80;;
15905;SDS011;8051;50.820;4.884;2023-02-15T01:11:07;70.20;;;54.77;;
15905;SDS011;8051;50.820;4.884;2023-02-15T01:13:38;66.63;;;54.87;;
15905;SDS011;8051;50.820;4.884;2023-02-15T01:16:06;77.83;;;55.33;;
15905;SDS011;8051;50.820;4.884;2023-02-15T01:18:35;72.87;;;55.50;;
15905;SDS011;8051;50.820;4.884;2023-02-15T01:21:08;81.57;;;55.13;;
15905;SDS011;8051;50.820;4.884;2023-02-15T01:23:37;72.20;;;56.13;;
15905;SDS011;8051;50.820;4.884;2023-02-15T01:26:04;73.43;;;56.43;;
15905;SDS011;8051;50.820;4.884;2023-02-15T01:28:31;73.70;;;56.83;;
15905;SDS011;8051;50.820;4.884;2023-02-15T01:31:03;68.53;;;54.73;;
15905;SDS011;8051;50.820;4.884;2023-02-15T01:33:31;74.83;;;57.33;;
15905;SDS011;8051;50.820;4.884;2023-02-15T01:35:59;77.90;;;55.23;;
15905;SDS011;8051;50.820;4.884;2023-02-15T01:38:27;80.90;;;57.03;;
15905;SDS011;8051;50.820;4.884;2023-02-15T01:40:54;72.40;;;57.07;;
15905;SDS011;8051;50.820;4.884;2023-02-15T01:43:43;71.53;;;56.13;;
15905;SDS011;8051;50.820;4.884;2023-02-15T01:46:13;74.43;;;56.90;;
15905;SDS011;8051;50.820;4.884;2023-02-15T01:48:45;80.67;;;58.43;;
15905;SDS011;8051;50.820;4.884;2023-02-15T01:51:16;70.17;;;54.77;;
15905;SDS011;8051;50.820;4.884;2023-02-15T01:53:47;70.77;;;56.80;;
15905;SDS011;8051;50.820;4.884;2023-02-15T01:56:17;74.10;;;56.03;;
15905;SDS011;8051;50.820;4.884;2023-02-15T01:58:48;74.40;;;55.97;;
15905;SDS011;8051;50.820;4.884;2023-02-15T02:01:19;79.57;;;57.07;;
15905;SDS011;8051;50.820;4.884;2023-02-15T02:03:49;70.93;;;54.67;;
15905;SDS011;8051;50.820;4.884;2023-02-15T02:06:26;67.33;;;53.57;;
15905;SDS011;8051;50.820;4.884;2023-02-15T02:08:54;77.17;;;58.57;;
15905;SDS011;8051;50.820;4.884;2023-02-15T02:11:22;75.23;;;57.20;;
15905;SDS011;8051;50.820;4.884;2023-02-15T02:13:49;70.57;;;55.83;;
15905;SDS011;8051;50.820;4.884;2023-02-15T02:16:22;74.93;;;56.50;;
15905;SDS011;8051;50.820;4.884;2023-02-15T02:19:00;73.00;;;55.27;;
15905;SDS011;8051;50.820;4.884;2023-02-15T02:21:58;81.77;;;59.23;;
15905;SDS011;8051;50.820;4.884;2023-02-15T02:27:32;72.73;;;56.10;;
15905;SDS011;8051;50.820;4.884;2023-02-15T02:33:25;78.90;;;56.23;;
15905;SDS011;8051;50.820;4.884;2023-02-15T02:36:08;78.43;;;57.00;;
15905;SDS011;8051;50.820;4.884;2023-02-15T02:38:47;73.97;;;56.17;;
15905;SDS011;8051;50.820;4.884;2023-02-15T02:41:37;78.60;;;53.10;;
15905;SDS011;8051;50.820;4.884;2023-02-15T02:44:12;78.27;;;56.50;;
15905;SDS011;8051;50.820;4.884;2023-02-15T02:46:46;75.70;;;57.17;;
15905;SDS011;8051;50.820;4.884;2023-02-15T02:49:28;77.07;;;56.57;;
15905;SDS011;8051;50.820;4.884;2023-02-15T02:51:58;70.00;;;53.60;;
15905;SDS011;8051;50.820;4.884;2023-02-15T02:54:26;68.23;;;54.37;;
15905;SDS011;8051;50.820;4.884;2023-02-15T02:56:55;77.93;;;55.87;;
15905;SDS011;8051;50.820;4.884;2023-02-15T02:59:26;78.93;;;58.43;;
15905;SDS011;8051;50.820;4.884;2023-02-15T03:01:58;74.70;;;54.43;;
15905;SDS011;8051;50.820;4.884;2023-02-15T03:04:35;79.07;;;56.27;;
15905;SDS011;8051;50.820;4.884;2023-02-15T03:07:04;78.03;;;54.73;;
15905;SDS011;8051;50.820;4.884;2023-02-15T03:09:35;75.90;;;55.07;;
15905;SDS011;8051;50.820;4.884;2023-02-15T03:12:08;78.00;;;53.53;;
15905;SDS011;8051;50.820;4.884;2023-02-15T03:14:37;70.87;;;54.40;;
15905;SDS011;8051;50.820;4.884;2023-02-15T03:17:07;65.93;;;53.70;;
15905;SDS011;8051;50.820;4.884;2023-02-15T03:19:37;73.17;;;55.30;;
15905;SDS011;8051;50.820;4.884;2023-02-15T03:22:07;73.30;;;56.10;;
15905;SDS011;8051;50.820;4.884;2023-02-15T03:24:41;71.17;;;54.77;;
15905;SDS011;8051;50.820;4.884;2023-02-15T03:27:14;68.90;;;51.80;;
15905;SDS011;8051;50.820;4.884;2023-02-15T03:29:45;73.77;;;56.10;;
15905;SDS011;8051;50.820;4.884;2023-02-15T03:32:15;72.93;;;56.73;;
15905;SDS011;8051;50.820;4.884;2023-02-15T03:34:45;66.47;;;53.57;;
15905;SDS011;8051;50.820;4.884;2023-02-15T03:37:13;75.00;;;53.77;;
15905;SDS011;8051;50.820;4.884;2023-02-15T03:39:47;69.33;;;52.73;;
15905;SDS011;8051;50.820;4.884;2023-02-15T03:42:20;74.27;;;55.00;;
15905;SDS011;8051;50.820;4.884;2023-02-15T03:44:54;80.83;;;57.20;;
15905;SDS011;8051;50.820;4.884;2023-02-15T03:47:26;80.50;;;58.67;;
15905;SDS011;8051;50.820;4.884;2023-02-15T03:49:59;76.00;;;59.20;;
15905;SDS011;8051;50.820;4.884;2023-02-15T03:52:50;92.97;;;59.10;;
15905;SDS011;8051;50.820;4.884;2023-02-15T03:55:18;83.97;;;57.87;;
15905;SDS011;8051;50.820;4.884;2023-02-15T03:57:45;69.00;;;54.37;;
15905;SDS011;8051;50.820;4.884;2023-02-15T04:00:30;73.73;;;55.60;;
15905;SDS011;8051;50.820;4.884;2023-02-15T04:03:22;77.20;;;55.63;;
15905;SDS011;8051;50.820;4.884;2023-02-15T04:05:57;71.47;;;55.67;;
15905;SDS011;8051;50.820;4.884;2023-02-15T04:08:26;70.40;;;52.20;;
15905;SDS011;8051;50.820;4.884;2023-02-15T04:11:07;74.57;;;52.27;;
15905;SDS011;8051;50.820;4.884;2023-02-15T04:13:35;86.10;;;54.77;;
15905;SDS011;8051;50.820;4.884;2023-02-15T04:16:03;76.53;;;55.80;;
15905;SDS011;8051;50.820;4.884;2023-02-15T04:18:29;70.40;;;55.07;;
15905;SDS011;8051;50.820;4.884;2023-02-15T04:21:16;73.83;;;55.67;;
15905;SDS011;8051;50.820;4.884;2023-02-15T04:24:01;72.60;;;54.70;;
15905;SDS011;8051;50.820;4.884;2023-02-15T04:26:45;70.37;;;53.27;;
15905;SDS011;8051;50.820;4.884;2023-02-15T04:29:14;71.73;;;55.13;;
15905;SDS011;8051;50.820;4.884;2023-02-15T04:31:41;68.63;;;52.97;;
15905;SDS011;8051;50.820;4.884;2023-02-15T04:34:09;75.60;;;54.10;;
15905;SDS011;8051;50.820;4.884;2023-02-15T04:36:38;70.77;;;53.73;;
15905;SDS011;8051;50.820;4.884;2023-02-15T04:39:06;71.97;;;52.10;;
15905;SDS011;8051;50.820;4.884;2023-02-15T04:41:34;83.57;;;52.50;;
15905;SDS011;8051;50.820;4.884;2023-02-15T04:44:02;73.40;;;54.30;;
15905;SDS011;8051;50.820;4.884;2023-02-15T04:46:29;72.57;;;52.73;;
15905;SDS011;8051;50.820;4.884;2023-02-15T04:48:57;67.77;;;53.80;;
15905;SDS011;8051;50.820;4.884;2023-02-15T04:51:24;69.80;;;51.83;;
15905;SDS011;8051;50.820;4.884;2023-02-15T04:53:53;68.13;;;51.60;;
15905;SDS011;8051;50.820;4.884;2023-02-15T04:56:21;67.67;;;51.53;;
15905;SDS011;8051;50.820;4.884;2023-02-15T04:58:49;77.00;;;51.60;;
15905;SDS011;8051;50.820;4.884;2023-02-15T05:01:16;75.23;;;51.80;;
15905;SDS011;8051;50.820;4.884;2023-02-15T05:03:44;77.23;;;53.47;;
15905;SDS011;8051;50.820;4.884;2023-02-15T05:06:11;77.50;;;53.00;;
15905;SDS011;8051;50.820;4.884;2023-02-15T05:08:39;67.27;;;52.07;;
15905;SDS011;8051;50.820;4.884;2023-02-15T05:11:08;67.80;;;52.37;;
15905;SDS011;8051;50.820;4.884;2023-02-15T05:13:35;67.17;;;52.40;;
15905;SDS011;8051;50.820;4.884;2023-02-15T05:16:03;79.57;;;52.07;;
15905;SDS011;8051;50.820;4.884;2023-02-15T05:18:31;85.23;;;51.37;;
15905;SDS011;8051;50.820;4.884;2023-02-15T05:20:58;79.63;;;54.97;;
15905;SDS011;8051;50.820;4.884;2023-02-15T05:23:26;65.33;;;51.73;;
15905;SDS011;8051;50.820;4.884;2023-02-15T05:25:54;77.60;;;55.17;;
15905;SDS011;8051;50.820;4.884;2023-02-15T05:28:40;82.23;;;52.97;;
15905;SDS011;8051;50.820;4.884;2023-02-15T05:31:07;71.57;;;50.53;;
15905;SDS011;8051;50.820;4.884;2023-02-15T05:33:37;65.37;;;51.67;;
15905;SDS011;8051;50.820;4.884;2023-02-15T05:36:06;75.77;;;53.00;;
15905;SDS011;8051;50.820;4.884;2023-02-15T05:38:34;75.67;;;53.57;;
15905;SDS011;8051;50.820;4.884;2023-02-15T05:41:02;84.70;;;52.93;;
15905;SDS011;8051;50.820;4.884;2023-02-15T05:43:30;76.80;;;52.13;;
15905;SDS011;8051;50.820;4.884;2023-02-15T05:46:00;74.40;;;53.23;;
15905;SDS011;8051;50.820;4.884;2023-02-15T05:48:27;69.43;;;52.70;;
15905;SDS011;8051;50.820;4.884;2023-02-15T05:50:58;64.77;;;50.13;;
15905;SDS011;8051;50.820;4.884;2023-02-15T05:53:27;72.53;;;53.20;;
15905;SDS011;8051;50.820;4.884;2023-02-15T05:55:55;75.23;;;54.00;;
15905;SDS011;8051;50.820;4.884;2023-02-15T05:58:24;77.47;;;50.30;;
15905;SDS011;8051;50.820;4.884;2023-02-15T06:00:52;69.10;;;52.80;;
15905;SDS011;8051;50.820;4.884;2023-02-15T06:03:21;76.10;;;54.13;;
15905;SDS011;8051;50.820;4.884;2023-02-15T06:05:50;77.73;;;53.57;;
15905;SDS011;8051;50.820;4.884;2023-02-15T06:08:18;78.87;;;50.97;;
15905;SDS011;8051;50.820;4.884;2023-02-15T06:10:46;66.40;;;48.17;;
15905;SDS011;8051;50.820;4.884;2023-02-15T06:13:13;69.97;;;52.20;;
15905;SDS011;8051;50.820;4.884;2023-02-15T06:15:41;73.67;;;49.23;;
15905;SDS011;8051;50.820;4.884;2023-02-15T06:18:08;74.17;;;50.13;;
15905;SDS011;8051;50.820;4.884;2023-02-15T06:20:38;89.43;;;53.30;;
15905;SDS011;8051;50.820;4.884;2023-02-15T06:23:05;65.13;;;46.63;;
15905;SDS011;8051;50.820;4.884;2023-02-15T06:25:33;69.03;;;48.37;;
15905;SDS011;8051;50.820;4.884;2023-02-15T06:28:00;78.70;;;51.63;;
15905;SDS011;8051;50.820;4.884;2023-02-15T06:30:28;76.63;;;49.00;;
15905;SDS011;8051;50.820;4.884;2023-02-15T06:32:55;72.40;;;49.73;;
15905;SDS011;8051;50.820;4.884;2023-02-15T06:35:23;70.20;;;49.23;;
15905;SDS011;8051;50.820;4.884;2023-02-15T06:37:52;71.27;;;48.90;;
15905;SDS011;8051;50.820;4.884;2023-02-15T06:40:19;78.93;;;52.20;;
15905;SDS011;8051;50.820;4.884;2023-02-15T06:42:47;67.10;;;49.80;;
15905;SDS011;8051;50.820;4.884;2023-02-15T06:45:15;68.80;;;49.27;;
15905;SDS011;8051;50.820;4.884;2023-02-15T06:47:42;72.87;;;50.73;;
15905;SDS011;8051;50.820;4.884;2023-02-15T06:50:10;73.13;;;52.73;;
15905;SDS011;8051;50.820;4.884;2023-02-15T06:52:38;66.90;;;51.10;;
15905;SDS011;8051;50.820;4.884;2023-02-15T06:55:08;68.27;;;50.40;;
15905;SDS011;8051;50.820;4.884;2023-02-15T06:57:35;77.47;;;51.60;;
15905;SDS011;8051;50.820;4.884;2023-02-15T07:00:03;71.60;;;50.47;;
15905;SDS011;8051;50.820;4.884;2023-02-15T07:02:32;68.33;;;49.77;;
15905;SDS011;8051;50.820;4.884;2023-02-15T07:04:59;75.10;;;52.40;;
15905;SDS011;8051;50.820;4.884;2023-02-15T07:07:28;72.47;;;51.10;;
15905;SDS011;8051;50.820;4.884;2023-02-15T07:09:55;74.43;;;51.70;;
15905;SDS011;8051;50.820;4.884;2023-02-15T07:12:24;72.70;;;50.80;;
15905;SDS011;8051;50.820;4.884;2023-02-15T07:15:11;79.63;;;52.57;;
15905;SDS011;8051;50.820;4.884;2023-02-15T07:17:40;71.40;;;51.37;;
15905;SDS011;8051;50.820;4.884;2023-02-15T07:20:09;70.83;;;52.80;;
15905;SDS011;8051;50.820;4.884;2023-02-15T07:22:39;77.80;;;54.67;;
15905;SDS011;8051;50.820;4.884;2023-02-15T07:25:07;72.80;;;52.50;;
15905;SDS011;8051;50.820;4.884;2023-02-15T07:27:37;79.50;;;54.63;;
15905;SDS011;8051;50.820;4.884;2023-02-15T07:30:05;74.20;;;52.23;;
15905;SDS011;8051;50.820;4.884;2023-02-15T07:32:34;75.60;;;50.97;;
15905;SDS011;8051;50.820;4.884;2023-02-15T07:35:22;79.80;;;54.43;;
15905;SDS011;8051;50.820;4.884;2023-02-15T07:37:50;76.27;;;55.23;;
15905;SDS011;8051;50.820;4.884;2023-02-15T07:40:18;80.80;;;54.73;;
15905;SDS011;8051;50.820;4.884;2023-02-15T07:42:49;77.13;;;52.23;;
15905;SDS011;8051;50.820;4.884;2023-02-15T07:45:19;71.73;;;53.13;;
15905;SDS011;8051;50.820;4.884;2023-02-15T07:47:47;68.90;;;52.40;;
15905;SDS011;8051;50.820;4.884;2023-02-15T07:50:15;68.00;;;52.60;;
15905;SDS011;8051;50.820;4.884;2023-02-15T07:52:43;74.20;;;51.07;;
15905;SDS011;8051;50.820;4.884;2023-02-15T07:55:10;76.93;;;54.40;;
15905;SDS011;8051;50.820;4.884;2023-02-15T07:57:41;78.30;;;53.73;;
15905;SDS011;8051;50.820;4.884;2023-02-15T08:00:11;75.70;;;53.30;;
15905;SDS011;8051;50.820;4.884;2023-02-15T08:02:40;69.37;;;53.43;;
15905;SDS011;8051;50.820;4.884;2023-02-15T08:05:08;75.73;;;53.70;;
15905;SDS011;8051;50.820;4.884;2023-02-15T08:07:35;78.63;;;53.40;;
15905;SDS011;8051;50.820;4.884;2023-02-15T08:10:03;82.83;;;54.07;;
15905;SDS011;8051;50.820;4.884;2023-02-15T08:12:31;80.90;;;54.20;;
15905;SDS011;8051;50.820;4.884;2023-02-15T08:14:59;79.53;;;53.50;;
15905;SDS011;8051;50.820;4.884;2023-02-15T08:17:28;77.17;;;53.53;;
15905;SDS011;8051;50.820;4.884;2023-02-15T08:19:55;75.83;;;54.90;;
15905;SDS011;8051;50.820;4.884;2023-02-15T08:22:23;81.90;;;53.03;;
15905;SDS011;8051;50.820;4.884;2023-02-15T08:24:51;84.53;;;54.13;;
15905;SDS011;8051;50.820;4.884;2023-02-15T08:27:18;83.40;;;54.27;;
15905;SDS011;8051;50.820;4.884;2023-02-15T08:29:51;87.67;;;56.97;;
15905;SDS011;8051;50.820;4.884;2023-02-15T08:32:19;79.17;;;53.17;;
15905;SDS011;8051;50.820;4.884;2023-02-15T08:34:48;75.93;;;56.80;;
15905;SDS011;8051;50.820;4.884;2023-02-15T08:37:15;77.03;;;54.27;;
15905;SDS011;8051;50.820;4.884;2023-02-15T08:39:43;75.87;;;54.33;;
15905;SDS011;8051;50.820;4.884;2023-02-15T08:42:11;77.13;;;53.83;;
15905;SDS011;8051;50.820;4.884;2023-02-15T08:44:38;71.60;;;53.97;;
15905;SDS011;8051;50.820;4.884;2023-02-15T08:47:06;78.37;;;55.20;;
15905;SDS011;8051;50.820;4.884;2023-02-15T08:49:33;72.37;;;51.30;;
15905;SDS011;8051;50.820;4.884;2023-02-15T08:52:02;62.60;;;49.60;;
15905;SDS011;8051;50.820;4.884;2023-02-15T08:54:31;76.37;;;51.90;;
15905;SDS011;8051;50.820;4.884;2023-02-15T08:56:58;64.37;;;49.03;;
15905;SDS011;8051;50.820;4.884;2023-02-15T08:59:26;73.57;;;52.27;;
15905;SDS011;8051;50.820;4.884;2023-02-15T09:01:53;67.67;;;50.07;;
15905;SDS011;8051;50.820;4.884;2023-02-15T09:04:21;66.97;;;48.63;;
15905;SDS011;8051;50.820;4.884;2023-02-15T09:06:49;64.30;;;46.90;;
15905;SDS011;8051;50.820;4.884;2023-02-15T09:09:19;70.10;;;48.73;;
15905;SDS011;8051;50.820;4.884;2023-02-15T09:11:47;58.73;;;45.53;;
15905;SDS011;8051;50.820;4.884;2023-02-15T09:14:16;58.17;;;44.37;;
15905;SDS011;8051;50.820;4.884;2023-02-15T09:16:47;55.00;;;41.10;;
15905;SDS011;8051;50.820;4.884;2023-02-15T09:19:16;50.43;;;38.93;;
15905;SDS011;8051;50.820;4.884;2023-02-15T09:21:44;54.80;;;42.17;;
15905;SDS011;8051;50.820;4.884;2023-02-15T09:24:13;49.27;;;40.03;;
15905;SDS011;8051;50.820;4.884;2023-02-15T09:26:43;49.37;;;42.13;;
15905;SDS011;8051;50.820;4.884;2023-02-15T09:29:12;54.93;;;43.43;;
15905;SDS011;8051;50.820;4.884;2023-02-15T09:31:41;47.77;;;42.17;;
15905;SDS011;8051;50.820;4.884;2023-02-15T09:34:10;48.33;;;42.43;;
15905;SDS011;8051;50.820;4.884;2023-02-15T09:36:38;46.90;;;40.90;;
15905;SDS011;8051;50.820;4.884;2023-02-15T09:39:07;47.70;;;41.43;;
15905;SDS011;8051;50.820;4.884;2023-02-15T09:41:55;49.30;;;43.97;;
15905;SDS011;8051;50.820;4.884;2023-02-15T09:47:46;48.97;;;40.57;;
15905;SDS011;8051;50.820;4.884;2023-02-15T09:50:32;49.77;;;43.13;;
15905;SDS011;8051;50.820;4.884;2023-02-15T09:53:20;48.60;;;41.80;;
15905;SDS011;8051;50.820;4.884;2023-02-15T09:56:00;47.63;;;42.53;;
15905;SDS011;8051;50.820;4.884;2023-02-15T09:58:37;45.70;;;40.93;;
15905;SDS011;8051;50.820;4.884;2023-02-15T10:01:14;46.20;;;41.27;;
15905;SDS011;8051;50.820;4.884;2023-02-15T10:03:54;43.77;;;39.17;;
15905;SDS011;8051;50.820;4.884;2023-02-15T10:06:42;41.50;;;36.97;;
15905;SDS011;8051;50.820;4.884;2023-02-15T12:21:40;36.93;;;33.03;;
15905;SDS011;8051;50.820;4.884;2023-02-15T12:24:11;39.60;;;35.53;;
15905;SDS011;8051;50.820;4.884;2023-02-15T12:26:44;37.63;;;33.83;;
15905;SDS011;8051;50.820;4.884;2023-02-15T12:29:23;37.87;;;33.97;;
15905;SDS011;8051;50.820;4.884;2023-02-15T12:31:56;39.80;;;34.03;;
15905;SDS011;8051;50.820;4.884;2023-02-15T12:34:25;38.37;;;34.27;;
15905;SDS011;8051;50.820;4.884;2023-02-15T12:36:57;40.37;;;33.00;;
15905;SDS011;8051;50.820;4.884;2023-02-15T12:39:28;37.90;;;32.57;;
15905;SDS011;8051;50.820;4.884;2023-02-15T12:41:59;40.30;;;33.40;;
15905;SDS011;8051;50.820;4.884;2023-02-15T12:44:29;37.73;;;33.70;;
15905;SDS011;8051;50.820;4.884;2023-02-15T12:46:58;40.17;;;34.23;;
15905;SDS011;8051;50.820;4.884;2023-02-15T12:49:27;41.57;;;34.27;;
15905;SDS011;8051;50.820;4.884;2023-02-15T13:53:18;37.73;;;33.47;;
15905;SDS011;8051;50.820;4.884;2023-02-15T13:56:02;43.10;;;35.27;;
15905;SDS011;8051;50.820;4.884;2023-02-15T13:58:48;38.50;;;34.33;;
15905;SDS011;8051;50.820;4.884;2023-02-15T14:01:31;39.30;;;35.13;;
15905;SDS011;8051;50.820;4.884;2023-02-15T14:07:06;41.67;;;34.97;;
15905;SDS011;8051;50.820;4.884;2023-02-15T14:09:53;43.70;;;36.00;;
15905;SDS011;8051;50.820;4.884;2023-02-15T14:12:37;40.10;;;35.50;;
15905;SDS011;8051;50.820;4.884;2023-02-15T14:15:21;40.03;;;35.73;;
15905;SDS011;8051;50.820;4.884;2023-02-15T14:18:00;38.27;;;34.33;;
15905;SDS011;8051;50.820;4.884;2023-02-15T14:20:45;39.80;;;35.53;;
15905;SDS011;8051;50.820;4.884;2023-02-15T14:23:25;42.33;;;36.13;;
15905;SDS011;8051;50.820;4.884;2023-02-15T14:26:06;40.33;;;36.27;;
15905;SDS011;8051;50.820;4.884;2023-02-15T14:28:43;39.43;;;35.13;;
15905;SDS011;8051;50.820;4.884;2023-02-15T14:31:18;40.10;;;36.07;;
15905;SDS011;8051;50.820;4.884;2023-02-15T14:33:54;41.37;;;37.07;;
15905;SDS011;8051;50.820;4.884;2023-02-15T14:36:23;41.23;;;36.20;;
15905;SDS011;8051;50.820;4.884;2023-02-15T14:38:57;42.17;;;36.33;;
15905;SDS011;8051;50.820;4.884;2023-02-15T14:41:55;41.13;;;36.10;;
15905;SDS011;8051;50.820;4.884;2023-02-15T14:44:27;39.97;;;35.63;;
15905;SDS011;8051;50.820;4.884;2023-02-15T14:47:04;39.47;;;35.17;;
15905;SDS011;8051;50.820;4.884;2023-02-15T14:49:37;41.03;;;35.30;;
15905;SDS011;8051;50.820;4.884;2023-02-15T14:52:05;41.60;;;34.93;;
15905;SDS011;8051;50.820;4.884;2023-02-15T14:57:26;42.13;;;35.63;;
15905;SDS011;8051;50.820;4.884;2023-02-15T15:00:00;41.27;;;36.83;;
15905;SDS011;8051;50.820;4.884;2023-02-15T15:02:44;42.20;;;34.50;;
15905;SDS011;8051;50.820;4.884;2023-02-15T15:05:16;39.90;;;34.73;;
15905;SDS011;8051;50.820;4.884;2023-02-15T15:07:47;40.87;;;36.43;;
15905;SDS011;8051;50.820;4.884;2023-02-15T15:10:33;39.97;;;35.77;;
15905;SDS011;8051;50.820;4.884;2023-02-15T15:16:25;38.67;;;34.27;;
15905;SDS011;8051;50.820;4.884;2023-02-15T15:18:56;41.67;;;35.93;;
15905;SDS011;8051;50.820;4.884;2023-02-15T15:37:01;41.63;;;37.00;;
15905;SDS011;8051;50.820;4.884;2023-02-15T15:39:56;43.30;;;36.97;;
15905;SDS011;8051;50.820;4.884;2023-02-15T15:42:48;40.70;;;36.60;;
15905;SDS011;8051;50.820;4.884;2023-02-15T15:45:34;42.63;;;37.80;;
15905;SDS011;8051;50.820;4.884;2023-02-15T15:48:28;41.97;;;37.60;;
15905;SDS011;8051;50.820;4.884;2023-02-15T15:50:59;40.37;;;35.90;;
15905;SDS011;8051;50.820;4.884;2023-02-15T15:53:34;39.27;;;35.30;;
15905;SDS011;8051;50.820;4.884;2023-02-15T15:56:08;49.50;;;39.77;;
15905;SDS011;8051;50.820;4.884;2023-02-15T15:58:42;41.47;;;35.63;;
15905;SDS011;8051;50.820;4.884;2023-02-15T16:01:13;40.83;;;36.60;;
15905;SDS011;8051;50.820;4.884;2023-02-15T16:03:48;40.40;;;36.23;;
15905;SDS011;8051;50.820;4.884;2023-02-15T16:06:26;39.93;;;34.93;;
15905;SDS011;8051;50.820;4.884;2023-02-15T16:08:56;39.53;;;35.50;;
15905;SDS011;8051;50.820;4.884;2023-02-15T16:11:35;39.67;;;35.40;;
15905;SDS011;8051;50.820;4.884;2023-02-15T16:14:08;40.77;;;35.77;;
15905;SDS011;8051;50.820;4.884;2023-02-15T16:16:39;39.00;;;34.90;;
15905;SDS011;8051;50.820;4.884;2023-02-15T16:19:14;41.83;;;37.00;;
15905;SDS011;8051;50.820;4.884;2023-02-15T16:21:48;40.40;;;36.03;;
15905;SDS011;8051;50.820;4.884;2023-02-15T16:24:24;40.47;;;35.77;;
15905;SDS011;8051;50.820;4.884;2023-02-15T16:29:51;40.97;;;36.53;;
15905;SDS011;8051;50.820;4.884;2023-02-15T16:32:20;45.40;;;34.77;;
15905;SDS011;8051;50.820;4.884;2023-02-15T16:34:50;40.47;;;36.33;;
15905;SDS011;8051;50.820;4.884;2023-02-15T16:37:20;41.97;;;37.57;;
15905;SDS011;8051;50.820;4.884;2023-02-15T16:39:52;42.10;;;37.80;;
15905;SDS011;8051;50.820;4.884;2023-02-15T16:42:21;41.70;;;37.27;;
15905;SDS011;8051;50.820;4.884;2023-02-15T16:44:51;43.90;;;38.23;;
15905;SDS011;8051;50.820;4.884;2023-02-15T16:47:23;47.37;;;39.70;;
15905;SDS011;8051;50.820;4.884;2023-02-15T16:49:53;42.70;;;38.13;;
15905;SDS011;8051;50.820;4.884;2023-02-15T16:52:24;43.37;;;38.70;;
15905;SDS011;8051;50.820;4.884;2023-02-15T16:54:55;43.97;;;39.17;;
15905;SDS011;8051;50.820;4.884;2023-02-15T16:57:24;44.70;;;40.03;;
15905;SDS011;8051;50.820;4.884;2023-02-15T16:59:55;46.93;;;40.03;;
15905;SDS011;8051;50.820;4.884;2023-02-15T17:02:27;48.97;;;43.93;;
15905;SDS011;8051;50.820;4.884;2023-02-15T17:07:51;41.67;;;36.43;;
15905;SDS011;8051;50.820;4.884;2023-02-15T17:10:35;48.10;;;42.43;;
15905;SDS011;8051;50.820;4.884;2023-02-15T17:13:09;45.17;;;38.07;;
15905;SDS011;8051;50.820;4.884;2023-02-15T17:15:38;46.00;;;41.03;;
15905;SDS011;8051;50.820;4.884;2023-02-15T17:18:09;50.73;;;45.40;;
15905;SDS011;8051;50.820;4.884;2023-02-15T17:20:43;49.03;;;44.13;;
15905;SDS011;8051;50.820;4.884;2023-02-15T17:23:20;53.97;;;48.43;;
15905;SDS011;8051;50.820;4.884;2023-02-15T17:25:53;52.97;;;47.43;;
15905;SDS011;8051;50.820;4.884;2023-02-15T17:28:22;52.43;;;47.17;;
15905;SDS011;8051;50.820;4.884;2023-02-15T17:30:52;55.40;;;49.57;;
15905;SDS011;8051;50.820;4.884;2023-02-15T17:33:22;56.50;;;50.63;;
15905;SDS011;8051;50.820;4.884;2023-02-15T17:36:04;52.67;;;47.00;;
15905;SDS011;8051;50.820;4.884;2023-02-15T17:38:35;55.47;;;46.50;;
15905;SDS011;8051;50.820;4.884;2023-02-15T17:41:04;52.83;;;47.67;;
15905;SDS011;8051;50.820;4.884;2023-02-15T17:43:34;49.93;;;44.93;;
15905;SDS011;8051;50.820;4.884;2023-02-15T17:46:02;50.60;;;44.40;;
15905;SDS011;8051;50.820;4.884;2023-02-15T17:48:32;50.10;;;44.97;;
15905;SDS011;8051;50.820;4.884;2023-02-15T17:51:02;47.60;;;42.90;;
15905;SDS011;8051;50.820;4.884;2023-02-15T17:53:31;53.10;;;47.77;;
15905;SDS011;8051;50.820;4.884;2023-02-15T17:55:59;51.63;;;46.13;;
15905;SDS011;8051;50.820;4.884;2023-02-15T17:58:36;50.33;;;44.93;;
15905;SDS011;8051;50.820;4.884;2023-02-15T18:01:05;50.53;;;45.20;;
15905;SDS011;8051;50.820;4.884;2023-02-15T18:03:57;45.97;;;41.10;;
15905;SDS011;8051;50.820;4.884;2023-02-15T18:06:42;50.97;;;45.77;;
15905;SDS011;8051;50.820;4.884;2023-02-15T18:09:27;53.60;;;48.20;;
15905;SDS011;8051;50.820;4.884;2023-02-15T18:12:17;49.47;;;44.10;;
15905;SDS011;8051;50.820;4.884;2023-02-15T18:14:48;51.23;;;44.23;;
15905;SDS011;8051;50.820;4.884;2023-02-15T18:17:16;49.60;;;44.47;;
15905;SDS011;8051;50.820;4.884;2023-02-15T18:19:44;49.03;;;43.90;;
15905;SDS011;8051;50.820;4.884;2023-02-15T18:22:14;51.00;;;45.83;;
15905;SDS011;8051;50.820;4.884;2023-02-15T18:24:43;51.60;;;46.37;;
15905;SDS011;8051;50.820;4.884;2023-02-15T18:27:11;51.73;;;46.43;;
15905;SDS011;8051;50.820;4.884;2023-02-15T18:29:39;49.33;;;44.13;;
15905;SDS011;8051;50.820;4.884;2023-02-15T18:32:12;55.77;;;49.87;;
15905;SDS011;8051;50.820;4.884;2023-02-15T18:34:42;54.73;;;49.20;;
15905;SDS011;8051;50.820;4.884;2023-02-15T18:37:12;54.70;;;48.77;;
15905;SDS011;8051;50.820;4.884;2023-02-15T18:39:44;55.13;;;49.37;;
15905;SDS011;8051;50.820;4.884;2023-02-15T18:42:17;53.03;;;47.23;;
15905;SDS011;8051;50.820;4.884;2023-02-15T18:44:47;53.83;;;46.90;;
15905;SDS011;8051;50.820;4.884;2023-02-15T18:47:16;57.23;;;51.20;;
15905;SDS011;8051;50.820;4.884;2023-02-15T18:49:44;56.23;;;48.57;;
15905;SDS011;8051;50.820;4.884;2023-02-15T18:52:13;54.37;;;48.40;;
15905;SDS011;8051;50.820;4.884;2023-02-15T18:54:41;55.97;;;50.20;;